sensor_id;sensor_type;location;lat;lon;timestamp;pressure;altitude;pressure_sealevel;temperature;humidity
37202;BME280;37799;52.390;6.136;2023-07-20T00:01:43;101397.03;;;14.84;100.00
37202;BME280;37799;52.390;6.136;2023-07-20T00:04:10;101398.84;;;14.82;100.00
37202;BME280;37799;52.390;6.136;2023-07-20T00:06:35;101406.88;;;14.75;100.00
37202;BME280;37799;52.390;6.136;2023-07-20T00:09:00;101406.72;;;14.80;100.00
37202;BME280;37799;52.390;6.136;2023-07-20T00:11:26;101412.03;;;14.77;100.00
37202;BME280;37799;52.390;6.136;2023-07-20T00:13:52;101412.16;;;14.74;100.00
37202;BME280;37799;52.390;6.136;2023-07-20T00:16:17;101404.41;;;14.71;100.00
37202;BME280;37799;52.390;6.136;2023-07-20T00:18:43;101409.69;;;14.69;100.00
37202;BME280;37799;52.390;6.136;2023-07-20T00:21:09;101408.75;;;14.72;100.00
37202;BME280;37799;52.390;6.136;2023-07-20T00:23:34;101407.09;;;14.69;100.00
37202;BME280;37799;52.390;6.136;2023-07-20T00:26:00;101407.41;;;14.60;100.00
37202;BME280;37799;52.390;6.136;2023-07-20T00:28:25;101404.16;;;14.54;100.00
37202;BME280;37799;52.390;6.136;2023-07-20T00:30:51;101408.50;;;14.53;100.00
37202;BME280;37799;52.390;6.136;2023-07-20T00:33:17;101403.50;;;14.47;100.00
37202;BME280;37799;52.390;6.136;2023-07-20T00:35:43;101402.50;;;14.51;100.00
37202;BME280;37799;52.390;6.136;2023-07-20T00:38:08;101394.44;;;14.59;100.00
37202;BME280;37799;52.390;6.136;2023-07-20T00:40:41;101399.66;;;14.59;100.00
37202;BME280;37799;52.390;6.136;2023-07-20T00:43:07;101403.09;;;14.59;100.00
37202;BME280;37799;52.390;6.136;2023-07-20T00:45:33;101399.78;;;14.54;100.00
37202;BME280;37799;52.390;6.136;2023-07-20T00:48:01;101408.31;;;14.59;100.00
37202;BME280;37799;52.390;6.136;2023-07-20T00:50:27;101412.63;;;14.60;100.00
37202;BME280;37799;52.390;6.136;2023-07-20T00:52:54;101417.72;;;14.63;100.00
37202;BME280;37799;52.390;6.136;2023-07-20T00:55:20;101413.53;;;14.59;100.00
37202;BME280;37799;52.390;6.136;2023-07-20T00:57:45;101421.47;;;14.55;100.00
37202;BME280;37799;52.390;6.136;2023-07-20T01:00:11;101420.34;;;14.63;100.00
37202;BME280;37799;52.390;6.136;2023-07-20T01:02:37;101413.53;;;14.59;100.00
37202;BME280;37799;52.390;6.136;2023-07-20T01:05:04;101413.53;;;14.59;100.00
37202;BME280;37799;52.390;6.136;2023-07-20T01:07:35;101410.22;;;14.54;100.00
37202;BME280;37799;52.390;6.136;2023-07-20T01:10:13;101414.50;;;14.55;100.00
37202;BME280;37799;52.390;6.136;2023-07-20T01:12:43;101410.16;;;14.56;100.00
37202;BME280;37799;52.390;6.136;2023-07-20T01:15:12;101410.25;;;14.53;100.00
37202;BME280;37799;52.390;6.136;2023-07-20T01:17:37;101409.47;;;14.51;100.00
37202;BME280;37799;52.390;6.136;2023-07-20T01:20:03;101408.66;;;14.49;100.00
37202;BME280;37799;52.390;6.136;2023-07-20T01:23:01;101400.91;;;14.47;100.00
37202;BME280;37799;52.390;6.136;2023-07-20T01:33:41;101414.47;;;14.57;100.00
37202;BME280;37799;52.390;6.136;2023-07-20T01:36:08;101406.00;;;14.50;100.00
37202;BME280;37799;52.390;6.136;2023-07-20T01:38:34;101402.59;;;14.48;100.00
37202;BME280;37799;52.390;6.136;2023-07-20T01:41:01;101402.72;;;14.43;100.00
37202;BME280;37799;52.390;6.136;2023-07-20T01:43:27;101408.81;;;14.44;100.00
37202;BME280;37799;52.390;6.136;2023-07-20T01:45:52;101404.56;;;14.40;100.00
37202;BME280;37799;52.390;6.136;2023-07-20T01:48:17;101409.63;;;14.46;100.00
37202;BME280;37799;52.390;6.136;2023-07-20T01:50:43;101411.28;;;14.49;100.00
37202;BME280;37799;52.390;6.136;2023-07-20T01:53:08;101407.97;;;14.42;100.00
37202;BME280;37799;52.390;6.136;2023-07-20T01:55:34;101414.38;;;14.32;100.00
37202;BME280;37799;52.390;6.136;2023-07-20T01:57:59;101409.53;;;14.21;100.00
37202;BME280;37799;52.390;6.136;2023-07-20T02:00:26;101411.47;;;14.14;100.00
37202;BME280;37799;52.390;6.136;2023-07-20T02:02:51;101403.97;;;14.04;100.00
37202;BME280;37799;52.390;6.136;2023-07-20T02:05:17;101404.31;;;13.93;100.00
37202;BME280;37799;52.390;6.136;2023-07-20T02:07:43;101398.59;;;13.82;100.00
37202;BME280;37799;52.390;6.136;2023-07-20T02:10:09;101402.44;;;13.70;100.00
37202;BME280;37799;52.390;6.136;2023-07-20T02:12:35;101405.97;;;13.68;100.00
37202;BME280;37799;52.390;6.136;2023-07-20T02:15:01;101402.59;;;13.64;100.00
37202;BME280;37799;52.390;6.136;2023-07-20T02:17:26;101403.94;;;13.48;100.00
37202;BME280;37799;52.390;6.136;2023-07-20T02:19:52;101403.19;;;13.44;100.00
37202;BME280;37799;52.390;6.136;2023-07-20T02:22:19;101398.94;;;13.40;100.00
37202;BME280;37799;52.390;6.136;2023-07-20T02:24:45;101408.75;;;13.32;100.00
37202;BME280;37799;52.390;6.136;2023-07-20T02:27:10;101408.88;;;13.26;100.00
37202;BME280;37799;52.390;6.136;2023-07-20T02:29:35;101403.09;;;13.15;100.00
37202;BME280;37799;52.390;6.136;2023-07-20T02:32:01;101413.78;;;13.06;100.00
37202;BME280;37799;52.390;6.136;2023-07-20T02:34:27;101423.41;;;13.00;100.00
37202;BME280;37799;52.390;6.136;2023-07-20T02:36:52;101421.00;;;12.94;100.00
37202;BME280;37799;52.390;6.136;2023-07-20T02:39:17;101423.63;;;12.93;100.00
37202;BME280;37799;52.390;6.136;2023-07-20T02:41:43;101415.00;;;12.92;100.00
37202;BME280;37799;52.390;6.136;2023-07-20T02:44:08;101423.75;;;12.88;100.00
37202;BME280;37799;52.390;6.136;2023-07-20T02:46:33;101429.13;;;12.82;100.00
37202;BME280;37799;52.390;6.136;2023-07-20T02:49:00;101422.31;;;12.78;100.00
37202;BME280;37799;52.390;6.136;2023-07-20T02:51:26;101427.41;;;12.81;100.00
37202;BME280;37799;52.390;6.136;2023-07-20T02:53:51;101431.03;;;12.74;100.00
37202;BME280;37799;52.390;6.136;2023-07-20T02:56:17;101425.16;;;12.67;100.00
37202;BME280;37799;52.390;6.136;2023-07-20T02:58:43;101429.66;;;12.61;100.00
37202;BME280;37799;52.390;6.136;2023-07-20T03:01:09;101425.44;;;12.57;100.00
37202;BME280;37799;52.390;6.136;2023-07-20T03:03:36;101431.50;;;12.56;100.00
37202;BME280;37799;52.390;6.136;2023-07-20T03:06:06;101435.00;;;12.55;100.00
37202;BME280;37799;52.390;6.136;2023-07-20T03:08:34;101432.50;;;12.52;100.00
37202;BME280;37799;52.390;6.136;2023-07-20T03:10:59;101436.84;;;12.51;100.00
37202;BME280;37799;52.390;6.136;2023-07-20T03:13:24;101432.50;;;12.52;100.00
37202;BME280;37799;52.390;6.136;2023-07-20T03:15:52;101431.56;;;12.54;100.00
37202;BME280;37799;52.390;6.136;2023-07-20T03:18:17;101435.09;;;12.52;100.00
37202;BME280;37799;52.390;6.136;2023-07-20T03:20:43;101438.50;;;12.54;100.00
37202;BME280;37799;52.390;6.136;2023-07-20T03:23:08;101444.63;;;12.50;100.00
37202;BME280;37799;52.390;6.136;2023-07-20T03:25:33;101443.91;;;12.45;100.00
37202;BME280;37799;52.390;6.136;2023-07-20T03:27:58;101449.09;;;12.45;100.00
37202;BME280;37799;52.390;6.136;2023-07-20T03:30:24;101454.38;;;12.42;100.00
37202;BME280;37799;52.390;6.136;2023-07-20T03:32:51;101445.13;;;12.30;100.00
37202;BME280;37799;52.390;6.136;2023-07-20T03:35:16;101442.78;;;12.19;100.00
37202;BME280;37799;52.390;6.136;2023-07-20T03:37:41;101441.19;;;12.14;100.00
37202;BME280;37799;52.390;6.136;2023-07-20T03:40:07;101449.09;;;12.07;100.00
37202;BME280;37799;52.390;6.136;2023-07-20T03:42:33;101443.00;;;12.08;100.00
37202;BME280;37799;52.390;6.136;2023-07-20T03:44:58;101442.84;;;12.16;100.00
37202;BME280;37799;52.390;6.136;2023-07-20T03:47:24;101451.53;;;12.15;100.00
37202;BME280;37799;52.390;6.136;2023-07-20T03:49:49;101444.75;;;12.08;100.00
37202;BME280;37799;52.390;6.136;2023-07-20T03:52:15;101452.69;;;12.02;100.00
37202;BME280;37799;52.390;6.136;2023-07-20T03:54:40;101448.44;;;11.98;100.00
37202;BME280;37799;52.390;6.136;2023-07-20T03:57:05;101449.31;;;11.98;100.00
37202;BME280;37799;52.390;6.136;2023-07-20T03:59:31;101449.31;;;11.97;100.00
37202;BME280;37799;52.390;6.136;2023-07-20T04:01:56;101445.13;;;11.91;100.00
37202;BME280;37799;52.390;6.136;2023-07-20T04:04:21;101446.06;;;11.89;100.00
37202;BME280;37799;52.390;6.136;2023-07-20T04:06:47;101451.31;;;11.84;100.00
37202;BME280;37799;52.390;6.136;2023-07-20T04:09:12;101453.91;;;11.84;100.00
37202;BME280;37799;52.390;6.136;2023-07-20T04:11:38;101453.16;;;11.80;100.00
37202;BME280;37799;52.390;6.136;2023-07-20T04:14:04;101450.53;;;11.80;100.00
37202;BME280;37799;52.390;6.136;2023-07-20T04:16:29;101456.59;;;11.81;100.00
37202;BME280;37799;52.390;6.136;2023-07-20T04:18:55;101446.16;;;11.82;100.00
37202;BME280;37799;52.390;6.136;2023-07-20T04:21:21;101452.19;;;11.85;100.00
37202;BME280;37799;52.390;6.136;2023-07-20T04:23:47;101458.25;;;11.85;100.00
37202;BME280;37799;52.390;6.136;2023-07-20T04:26:12;101455.63;;;11.87;100.00
37202;BME280;37799;52.390;6.136;2023-07-20T04:28:38;101461.59;;;11.90;100.00
37202;BME280;37799;52.390;6.136;2023-07-20T04:31:12;101462.38;;;11.94;100.00
37202;BME280;37799;52.390;6.136;2023-07-20T04:33:38;101469.13;;;12.02;100.00
37202;BME280;37799;52.390;6.136;2023-07-20T04:36:04;101469.09;;;12.04;100.00
37202;BME280;37799;52.390;6.136;2023-07-20T04:38:30;101466.41;;;12.07;100.00
37202;BME280;37799;52.390;6.136;2023-07-20T04:40:55;101470.63;;;12.13;100.00
37202;BME280;37799;52.390;6.136;2023-07-20T04:43:21;101467.91;;;12.17;100.00
37202;BME280;37799;52.390;6.136;2023-07-20T04:45:46;101470.44;;;12.20;100.00
37202;BME280;37799;52.390;6.136;2023-07-20T04:48:16;101475.56;;;12.25;100.00
37202;BME280;37799;52.390;6.136;2023-07-20T04:50:42;101484.03;;;12.31;100.00
37202;BME280;37799;52.390;6.136;2023-07-20T04:53:09;101483.09;;;12.34;100.00
37202;BME280;37799;52.390;6.136;2023-07-20T04:55:38;101485.63;;;12.38;100.00
37202;BME280;37799;52.390;6.136;2023-07-20T04:58:04;101484.63;;;12.44;100.00
37202;BME280;37799;52.390;6.136;2023-07-20T05:00:31;101487.97;;;12.48;100.00
37202;BME280;37799;52.390;6.136;2023-07-20T05:02:57;101492.25;;;12.52;100.00
37202;BME280;37799;52.390;6.136;2023-07-20T05:05:23;101486.97;;;12.55;100.00
37202;BME280;37799;52.390;6.136;2023-07-20T05:07:48;101494.56;;;12.62;100.00
37202;BME280;37799;52.390;6.136;2023-07-20T05:10:13;101499.59;;;12.70;100.00
37202;BME280;37799;52.390;6.136;2023-07-20T05:12:39;101495.19;;;12.72;100.00
37202;BME280;37799;52.390;6.136;2023-07-20T05:15:04;101500.31;;;12.75;100.00
37202;BME280;37799;52.390;6.136;2023-07-20T05:17:30;101493.19;;;12.83;100.00
37202;BME280;37799;52.390;6.136;2023-07-20T05:19:55;101496.59;;;12.85;100.00
37202;BME280;37799;52.390;6.136;2023-07-20T05:22:21;101494.81;;;12.87;100.00
37202;BME280;37799;52.390;6.136;2023-07-20T05:24:46;101491.13;;;12.96;100.00
37202;BME280;37799;52.390;6.136;2023-07-20T05:27:12;101507.47;;;13.01;100.00
37202;BME280;37799;52.390;6.136;2023-07-20T05:29:37;101503.03;;;13.06;100.00
37202;BME280;37799;52.390;6.136;2023-07-20T05:32:03;101500.81;;;13.25;100.00
37202;BME280;37799;52.390;6.136;2023-07-20T05:34:28;101506.63;;;13.66;100.00
37202;BME280;37799;52.390;6.136;2023-07-20T05:36:54;101499.38;;;14.64;100.00
37202;BME280;37799;52.390;6.136;2023-07-20T05:39:20;101495.94;;;15.40;100.00
37202;BME280;37799;52.390;6.136;2023-07-20T05:41:45;101500.00;;;16.18;100.00
37202;BME280;37799;52.390;6.136;2023-07-20T05:44:10;101508.47;;;17.11;100.00
37202;BME280;37799;52.390;6.136;2023-07-20T05:46:36;101507.75;;;18.06;100.00
37202;BME280;37799;52.390;6.136;2023-07-20T05:49:01;101500.38;;;18.86;100.00
37202;BME280;37799;52.390;6.136;2023-07-20T05:51:27;101513.00;;;19.65;100.00
37202;BME280;37799;52.390;6.136;2023-07-20T05:53:52;101507.41;;;20.20;100.00
37202;BME280;37799;52.390;6.136;2023-07-20T05:56:18;101508.91;;;20.55;100.00
37202;BME280;37799;52.390;6.136;2023-07-20T05:58:43;101512.84;;;21.08;100.00
37202;BME280;37799;52.390;6.136;2023-07-20T06:01:08;101511.91;;;21.68;100.00
37202;BME280;37799;52.390;6.136;2023-07-20T06:03:34;101513.28;;;22.16;100.00
37202;BME280;37799;52.390;6.136;2023-07-20T06:06:03;101512.41;;;22.57;100.00
37202;BME280;37799;52.390;6.136;2023-07-20T06:08:33;101528.81;;;23.02;100.00
37202;BME280;37799;52.390;6.136;2023-07-20T07:33:34;101570.72;;;25.98;77.30
37202;BME280;37799;52.390;6.136;2023-07-20T07:36:00;101565.41;;;26.09;70.36
37202;BME280;37799;52.390;6.136;2023-07-20T07:38:25;101580.09;;;25.68;67.70
37202;BME280;37799;52.390;6.136;2023-07-20T07:40:51;101572.28;;;25.78;68.90
37202;BME280;37799;52.390;6.136;2023-07-20T07:43:16;101571.94;;;25.82;76.28
37202;BME280;37799;52.390;6.136;2023-07-20T07:45:41;101566.00;;;26.24;68.22
37202;BME280;37799;52.390;6.136;2023-07-20T07:48:07;101573.34;;;25.53;66.82
37202;BME280;37799;52.390;6.136;2023-07-20T07:50:33;101569.41;;;24.64;67.81
37202;BME280;37799;52.390;6.136;2023-07-20T07:52:59;101567.72;;;24.63;79.49
37202;BME280;37799;52.390;6.136;2023-07-20T07:55:25;101570.31;;;25.11;79.33
37202;BME280;37799;52.390;6.136;2023-07-20T07:57:53;101571.44;;;25.77;72.28
37202;BME280;37799;52.390;6.136;2023-07-20T08:00:19;101575.50;;;25.59;66.55
37202;BME280;37799;52.390;6.136;2023-07-20T08:02:47;101573.22;;;25.66;61.19
37202;BME280;37799;52.390;6.136;2023-07-20T08:05:13;101578.06;;;25.72;68.86
37202;BME280;37799;52.390;6.136;2023-07-20T08:07:39;101573.31;;;25.64;69.67
37202;BME280;37799;52.390;6.136;2023-07-20T08:10:05;101582.69;;;25.92;62.76
37202;BME280;37799;52.390;6.136;2023-07-20T08:12:31;101584.25;;;26.06;66.82
37202;BME280;37799;52.390;6.136;2023-07-20T08:14:56;101581.09;;;26.01;67.48
37202;BME280;37799;52.390;6.136;2023-07-20T08:17:22;101581.69;;;26.38;72.08
37202;BME280;37799;52.390;6.136;2023-07-20T08:19:47;101589.03;;;26.34;62.75
37202;BME280;37799;52.390;6.136;2023-07-20T08:22:12;101585.41;;;26.35;65.94
37202;BME280;37799;52.390;6.136;2023-07-20T08:24:42;101582.75;;;26.47;64.62
37202;BME280;37799;52.390;6.136;2023-07-20T08:27:08;101583.16;;;26.08;64.00
37202;BME280;37799;52.390;6.136;2023-07-20T08:29:34;101585.41;;;26.13;62.91
37202;BME280;37799;52.390;6.136;2023-07-20T08:32:00;101583.25;;;26.40;59.30
37202;BME280;37799;52.390;6.136;2023-07-20T08:34:25;101579.13;;;25.58;63.54
37202;BME280;37799;52.390;6.136;2023-07-20T08:36:51;101583.66;;;24.75;65.35
37202;BME280;37799;52.390;6.136;2023-07-20T08:39:16;101584.16;;;24.80;69.80
37202;BME280;37799;52.390;6.136;2023-07-20T08:41:46;101585.25;;;25.01;63.89
37202;BME280;37799;52.390;6.136;2023-07-20T08:44:11;101580.72;;;25.25;66.48
37202;BME280;37799;52.390;6.136;2023-07-20T08:46:38;101592.53;;;25.21;62.00
37202;BME280;37799;52.390;6.136;2023-07-20T08:49:06;101590.00;;;25.77;64.12
37202;BME280;37799;52.390;6.136;2023-07-20T08:51:31;101592.06;;;26.84;68.17
37202;BME280;37799;52.390;6.136;2023-07-20T08:53:58;101591.16;;;27.48;60.72
37202;BME280;37799;52.390;6.136;2023-07-20T08:56:25;101591.72;;;28.03;55.59
37202;BME280;37799;52.390;6.136;2023-07-20T08:58:52;101590.59;;;28.05;52.27
37202;BME280;37799;52.390;6.136;2023-07-20T09:01:19;101584.63;;;26.99;52.05
37202;BME280;37799;52.390;6.136;2023-07-20T09:03:45;101583.50;;;26.15;54.39
37202;BME280;37799;52.390;6.136;2023-07-20T09:06:12;101570.91;;;24.80;57.40
37202;BME280;37799;52.390;6.136;2023-07-20T09:08:41;101577.94;;;24.44;60.08
37202;BME280;37799;52.390;6.136;2023-07-20T09:11:07;101568.63;;;23.89;63.18
37202;BME280;37799;52.390;6.136;2023-07-20T09:13:33;101566.66;;;24.17;62.58
37202;BME280;37799;52.390;6.136;2023-07-20T09:15:59;101573.72;;;25.13;64.25
37202;BME280;37799;52.390;6.136;2023-07-20T09:18:26;101571.63;;;26.30;58.73
37202;BME280;37799;52.390;6.136;2023-07-20T09:20:53;101573.50;;;27.05;58.16
37202;BME280;37799;52.390;6.136;2023-07-20T09:23:19;101575.66;;;27.74;52.21
37202;BME280;37799;52.390;6.136;2023-07-20T09:25:44;101578.19;;;27.85;51.67
37202;BME280;37799;52.390;6.136;2023-07-20T09:28:15;101575.06;;;27.08;54.28
37202;BME280;37799;52.390;6.136;2023-07-20T09:30:41;101567.59;;;26.69;50.30
37202;BME280;37799;52.390;6.136;2023-07-20T09:33:18;101571.19;;;26.68;52.04
37202;BME280;37799;52.390;6.136;2023-07-20T09:35:43;101570.88;;;27.56;52.69
37202;BME280;37799;52.390;6.136;2023-07-20T09:38:09;101570.19;;;28.25;49.51
37202;BME280;37799;52.390;6.136;2023-07-20T09:40:37;101577.31;;;28.74;44.45
37202;BME280;37799;52.390;6.136;2023-07-20T09:43:10;101576.97;;;29.55;41.26
37202;BME280;37799;52.390;6.136;2023-07-20T09:45:39;101579.44;;;29.00;42.60
37202;BME280;37799;52.390;6.136;2023-07-20T09:48:06;101581.69;;;28.26;45.83
37202;BME280;37799;52.390;6.136;2023-07-20T09:50:33;101576.88;;;27.49;47.21
37202;BME280;37799;52.390;6.136;2023-07-20T09:53:00;101573.03;;;27.21;47.64
37202;BME280;37799;52.390;6.136;2023-07-20T09:55:27;101575.50;;;26.81;45.76
37202;BME280;37799;52.390;6.136;2023-07-20T09:57:54;101575.66;;;26.36;48.93
37202;BME280;37799;52.390;6.136;2023-07-20T10:00:21;101577.13;;;25.95;48.49
37202;BME280;37799;52.390;6.136;2023-07-20T10:02:46;101573.78;;;25.36;52.68
37202;BME280;37799;52.390;6.136;2023-07-20T10:05:14;101578.66;;;24.46;61.53
37202;BME280;37799;52.390;6.136;2023-07-20T10:07:52;101572.53;;;23.45;73.77
37202;BME280;37799;52.390;6.136;2023-07-20T10:10:18;101579.28;;;22.84;84.13
37202;BME280;37799;52.390;6.136;2023-07-20T10:12:48;101579.13;;;22.32;91.87
37202;BME280;37799;52.390;6.136;2023-07-20T10:15:24;101579.59;;;21.96;100.00
37202;BME280;37799;52.390;6.136;2023-07-20T10:20:27;101571.47;;;21.42;100.00
37202;BME280;37799;52.390;6.136;2023-07-20T10:22:55;101571.81;;;21.06;100.00
37202;BME280;37799;52.390;6.136;2023-07-20T10:25:22;101569.78;;;21.11;100.00
37202;BME280;37799;52.390;6.136;2023-07-20T10:27:49;101576.44;;;21.16;100.00
37202;BME280;37799;52.390;6.136;2023-07-20T10:30:17;101577.16;;;21.34;100.00
37202;BME280;37799;52.390;6.136;2023-07-20T10:32:43;101567.94;;;22.14;100.00
37202;BME280;37799;52.390;6.136;2023-07-20T10:35:14;101564.28;;;22.44;100.00
37202;BME280;37799;52.390;6.136;2023-07-20T10:37:51;101565.00;;;22.19;100.00
37202;BME280;37799;52.390;6.136;2023-07-20T10:40:24;101566.50;;;22.23;100.00
37202;BME280;37799;52.390;6.136;2023-07-20T10:42:50;101561.22;;;22.23;100.00
37202;BME280;37799;52.390;6.136;2023-07-20T10:45:17;101567.56;;;22.47;100.00
37202;BME280;37799;52.390;6.136;2023-07-20T10:47:46;101563.31;;;22.59;100.00
37202;BME280;37799;52.390;6.136;2023-07-20T10:50:12;101562.72;;;22.68;98.07
37202;BME280;37799;52.390;6.136;2023-07-20T10:52:39;101560.50;;;22.48;98.11
37202;BME280;37799;52.390;6.136;2023-07-20T10:55:17;101553.53;;;22.47;100.00
37202;BME280;37799;52.390;6.136;2023-07-20T10:58:14;101554.38;;;22.47;100.00
37202;BME280;37799;52.390;6.136;2023-07-20T11:01:17;101553.59;;;22.18;99.08
37202;BME280;37799;52.390;6.136;2023-07-20T11:03:43;101553.31;;;22.23;100.00
37202;BME280;37799;52.390;6.136;2023-07-20T11:09:04;101552.50;;;22.49;94.61
37202;BME280;37799;52.390;6.136;2023-07-20T11:11:31;101544.88;;;22.45;95.19
37202;BME280;37799;52.390;6.136;2023-07-20T11:13:59;101545.72;;;22.45;94.30
37202;BME280;37799;52.390;6.136;2023-07-20T11:16:45;101553.78;;;22.29;93.71
37202;BME280;37799;52.390;6.136;2023-07-20T11:19:20;101553.97;;;22.12;97.94
37202;BME280;37799;52.390;6.136;2023-07-20T11:21:49;101544.38;;;21.97;95.64
37202;BME280;37799;52.390;6.136;2023-07-20T11:24:15;101546.44;;;21.92;91.56
37202;BME280;37799;52.390;6.136;2023-07-20T11:26:45;101550.78;;;21.64;95.33
37202;BME280;37799;52.390;6.136;2023-07-20T11:29:12;101552.72;;;21.46;99.88
37202;BME280;37799;52.390;6.136;2023-07-20T11:31:39;101543.72;;;21.36;100.00
37202;BME280;37799;52.390;6.136;2023-07-20T11:34:05;101544.19;;;21.43;100.00
37202;BME280;37799;52.390;6.136;2023-07-20T11:36:31;101546.91;;;21.41;99.58
37202;BME280;37799;52.390;6.136;2023-07-20T11:38:58;101542.97;;;21.77;89.19
37202;BME280;37799;52.390;6.136;2023-07-20T11:41:24;101536.31;;;22.68;84.89
37202;BME280;37799;52.390;6.136;2023-07-20T11:43:50;101537.13;;;23.73;76.20
37202;BME280;37799;52.390;6.136;2023-07-20T11:46:16;101539.16;;;24.06;71.49
37202;BME280;37799;52.390;6.136;2023-07-20T11:48:41;101538.59;;;24.63;70.40
37202;BME280;37799;52.390;6.136;2023-07-20T11:51:13;101533.41;;;25.32;68.95
37202;BME280;37799;52.390;6.136;2023-07-20T11:53:39;101527.28;;;26.10;59.47
37202;BME280;37799;52.390;6.136;2023-07-20T11:56:04;101534.53;;;25.97;60.34
37202;BME280;37799;52.390;6.136;2023-07-20T11:58:29;101534.53;;;25.85;57.99
37202;BME280;37799;52.390;6.136;2023-07-20T12:00:55;101530.34;;;24.79;64.61
37202;BME280;37799;52.390;6.136;2023-07-20T12:03:21;101523.44;;;24.29;68.71
37202;BME280;37799;52.390;6.136;2023-07-20T12:05:46;101529.50;;;24.31;71.88
37202;BME280;37799;52.390;6.136;2023-07-20T12:08:12;101520.28;;;24.24;70.48
37202;BME280;37799;52.390;6.136;2023-07-20T12:10:39;101525.47;;;23.76;69.20
37202;BME280;37799;52.390;6.136;2023-07-20T12:13:09;101518.28;;;23.27;77.08
37202;BME280;37799;52.390;6.136;2023-07-20T12:15:35;101523.53;;;23.14;71.08
37202;BME280;37799;52.390;6.136;2023-07-20T12:18:01;101516.38;;;22.50;78.08
37202;BME280;37799;52.390;6.136;2023-07-20T12:20:32;101519.91;;;22.36;78.04
37202;BME280;37799;52.390;6.136;2023-07-20T12:23:18;101511.69;;;22.94;76.93
37202;BME280;37799;52.390;6.136;2023-07-20T12:25:46;101508.53;;;23.15;74.66
37202;BME280;37799;52.390;6.136;2023-07-20T12:28:13;101512.47;;;22.82;74.49
37202;BME280;37799;52.390;6.136;2023-07-20T12:30:40;101514.13;;;22.98;75.65
37202;BME280;37799;52.390;6.136;2023-07-20T12:33:06;101520.28;;;23.23;78.58
37202;BME280;37799;52.390;6.136;2023-07-20T12:35:32;101510.91;;;23.70;73.31
37202;BME280;37799;52.390;6.136;2023-07-20T12:37:58;101510.47;;;24.13;67.28
37202;BME280;37799;52.390;6.136;2023-07-20T12:40:24;101517.53;;;24.25;71.45
37202;BME280;37799;52.390;6.136;2023-07-20T12:42:49;101517.34;;;24.16;70.28
37202;BME280;37799;52.390;6.136;2023-07-20T12:45:15;101521.09;;;24.00;68.85
37202;BME280;37799;52.390;6.136;2023-07-20T12:47:41;101518.59;;;23.86;70.17
37202;BME280;37799;52.390;6.136;2023-07-20T12:50:08;101514.78;;;23.77;70.74
37202;BME280;37799;52.390;6.136;2023-07-20T12:52:38;101509.50;;;23.14;72.21
37202;BME280;37799;52.390;6.136;2023-07-20T12:55:05;101509.28;;;22.77;72.29
37202;BME280;37799;52.390;6.136;2023-07-20T12:57:30;101509.78;;;22.57;75.47
37202;BME280;37799;52.390;6.136;2023-07-20T12:59:56;101503.75;;;22.55;74.86
37202;BME280;37799;52.390;6.136;2023-07-20T13:02:21;101499.94;;;22.59;75.45
37202;BME280;37799;52.390;6.136;2023-07-20T13:04:46;101498.25;;;22.58;74.22
37202;BME280;37799;52.390;6.136;2023-07-20T13:07:12;101505.38;;;22.70;70.80
37202;BME280;37799;52.390;6.136;2023-07-20T13:09:37;101504.09;;;22.76;73.20
37202;BME280;37799;52.390;6.136;2023-07-20T13:12:03;101498.81;;;23.03;74.19
37202;BME280;37799;52.390;6.136;2023-07-20T13:14:28;101502.72;;;23.10;67.81
37202;BME280;37799;52.390;6.136;2023-07-20T13:16:55;101503.03;;;23.43;66.43
37202;BME280;37799;52.390;6.136;2023-07-20T13:19:21;101494.00;;;23.60;71.35
37202;BME280;37799;52.390;6.136;2023-07-20T13:21:46;101488.03;;;23.69;67.02
37202;BME280;37799;52.390;6.136;2023-07-20T13:24:11;101489.28;;;23.89;67.44
37202;BME280;37799;52.390;6.136;2023-07-20T13:26:37;101486.63;;;23.89;62.08
37202;BME280;37799;52.390;6.136;2023-07-20T13:29:02;101484.63;;;23.80;63.17
37202;BME280;37799;52.390;6.136;2023-07-20T13:31:28;101481.34;;;23.89;63.25
37202;BME280;37799;52.390;6.136;2023-07-20T13:33:53;101483.69;;;23.81;61.82
37202;BME280;37799;52.390;6.136;2023-07-20T13:36:20;101486.56;;;23.52;66.13
37202;BME280;37799;52.390;6.136;2023-07-20T13:38:46;101485.59;;;23.41;68.99
37202;BME280;37799;52.390;6.136;2023-07-20T13:41:12;101486.34;;;23.30;70.10
37202;BME280;37799;52.390;6.136;2023-07-20T13:43:37;101485.00;;;23.63;69.68
37202;BME280;37799;52.390;6.136;2023-07-20T13:46:02;101479.81;;;24.10;65.84
37202;BME280;37799;52.390;6.136;2023-07-20T13:48:28;101482.94;;;24.52;71.92
37202;BME280;37799;52.390;6.136;2023-07-20T13:50:53;101493.38;;;24.78;59.74
37202;BME280;37799;52.390;6.136;2023-07-20T13:53:19;101484.22;;;25.17;60.26
37202;BME280;37799;52.390;6.136;2023-07-20T13:55:44;101482.41;;;26.07;57.06
37202;BME280;37799;52.390;6.136;2023-07-20T13:58:10;101481.03;;;26.88;55.36
37202;BME280;37799;52.390;6.136;2023-07-20T14:00:35;101474.34;;;27.35;48.27
37202;BME280;37799;52.390;6.136;2023-07-20T14:03:01;101471.91;;;27.01;50.90
37202;BME280;37799;52.390;6.136;2023-07-20T14:05:26;101465.00;;;26.99;50.03
37202;BME280;37799;52.390;6.136;2023-07-20T14:07:53;101464.13;;;27.40;51.05
37202;BME280;37799;52.390;6.136;2023-07-20T14:10:19;101466.69;;;27.21;45.93
37202;BME280;37799;52.390;6.136;2023-07-20T14:12:45;101457.75;;;27.52;47.61
37202;BME280;37799;52.390;6.136;2023-07-20T14:15:10;101453.53;;;27.50;47.91
37202;BME280;37799;52.390;6.136;2023-07-20T14:17:36;101453.31;;;27.01;48.05
37202;BME280;37799;52.390;6.136;2023-07-20T14:20:02;101449.53;;;26.62;48.68